Archival Weather

Tokyo Intl

Tokyo, Japan (RJTT)

Report from: Tuesday, November 21, 2023 3:00 PM JST
Current time: Saturday, February 24, 2024 11:53 PM JST

Current weather – Weather history – Daily summaries
Weather forecast

Temperature17.0°C (62.6°F)
Dew point8.0°C (46.4°F)
Winds 8 kts (4.1 m/s, 9.2 mph) South (180°)
Visibility6.2 mi. (10 km)
Clouds Few clouds 3,000 ft. (914 m)
Altimeter30.12 in.Hg (1020 mB)
Relative humidity55 %
Density altitude163 ft. (50 m)
Remarks No significant changes expected in the next two hours
Flight conditions Visual Meteorological Conditions
Raw dataRJTT 210600Z 18008KT 9999 FEW030 17/08 Q1020 NOSIG RMK 1CU030 A3013
An error has occurred. This application may no longer respond until reloaded. Reload 🗙